<< Go Back

Walled Lake Memorial Day Run/Walk
Date: May. 24, 2015
Results by Everal Race Management
Contact for Race Timing

 
Walled Lake Memorial Run/Walk

5k

Age Group Results

May 24, 2015

Results Provided by Everal Race Management

Male Overall Winner Winners
Total
Place Name City Bib No Age Overall Time Pace
1 Matthew Richardson Wolverine Lake MI 107 39 1 17:19 5:35/M


Female No Age Provided
Total
Place Name City Bib No Age Overall Time Pace
1 Kate Moore Walled Lake MI 85 82 34:10 11:01/M
2 Marianne Holman Wolverine Lake MI 49 0 110 42:09 13:36/M


Male 19 and Under
Total
Place Name City Bib No Age Overall Time Pace
1 Pablo Martinez Commerce MI 56 14 4 19:26 6:16/M
2 Hector Ramirez Walled Lake MI 136 15 5 19:50 6:24/M
3 Ryan Hamlin Novi MI 300 14 12 22:44 7:20/M
4 Felipe Martinez Commerce MI 89 11 16 24:08 7:47/M
5 Evan Dixon Royal Oak MI 16 19 26 25:39 8:16/M
6 Connor Davis Novi MI 36 14 29 25:55 8:22/M
7 Matthew Mills Novi MI 25 16 62 31:51 10:16/M
8 Nikolai Sawasky Walled Lake MI 79 8 75 33:20 10:45/M
9 Patrick McManus Canton MI 48 14 99 37:48 12:12/M
10 Andrew Stus Novi MI 134 11 103 40:03 12:55/M
11 Brendan Slaughter Milford MI 61 10 127 50:24 16:15/M


Female 19 and Under
Total
Place Name City Bib No Age Overall Time Pace
1 Sarah Shea Sterling Heights M 77 15 7 21:24 6:54/M
2 Shantal Servello Highland MI 94 12 13 23:43 7:39/M
3 Demerise Lesnau Commerce Township 52 17 33 26:16 8:28/M
4 Alyssa Bossman Farmington Hills M 40 15 53 30:10 9:44/M
5 Camyle Cryderman Westland MI 68 19 93 36:07 11:39/M
6 Rylie Anderson Wolverine Lake MI 81 6 117 44:50 14:28/M


Male 20 to 29
Total
Place Name City Bib No Age Overall Time Pace
1 Jeffrey Poole Walled Lake MI 37 27 9 22:15 7:11/M
2 Scott Suter Abilene TX 30 28 30 26:08 8:26/M
3 Niel Johnson Walled Lake MI 20 24 34 26:28 8:32/M
4 Chris Bowman Walled Lake MI 19 23 35 26:31 8:33/M
5 Roger Goff Dearborn MI 124 24 51 29:53 9:38/M
6 Jerry Leon Fluellen Farmington Hills M 111 29 116 44:33 14:22/M


Female 20 to 29
Total
Place Name City Bib No Age Overall Time Pace
1 Shannon Shea Sterling Heights M 33 27 17 24:11 7:48/M
2 Katie Frey Wixom MI 63 21 24 25:33 8:15/M
3 Pamela Nixon Stow OHIO 96 29 41 27:31 8:53/M
4 Lauren Lapka Novi MI 92 26 42 27:40 8:55/M
5 Ashlee Carnahon Walled Lake MI 130 28 47 28:49 9:18/M
6 Stacie Stierman Canton MI 32 28 89 34:59 11:17/M
7 Aby Cryderman Westland MI 69 22 92 35:43 11:31/M
8 Charanya Rajan Commerce Town Ship 87 26 113 43:41 14:05/M
9 Abirami Rajendran Novi MI 101 26 114 43:54 14:10/M


Male 30 to 39
Total
Place Name City Bib No Age Overall Time Pace
1 James Brown Walled Lake MI 45 36 3 18:52 6:05/M
2 Julian Ursing Walled Lake MI 127 33 6 21:07 6:49/M
3 Brian Sladewski Northville MI 1 30 22 24:44 7:59/M
4 Jeff Jarrell Walled Lake MI 62 35 23 25:09 8:07/M
5 Matthew Bukala White Lake MI 3 37 28 25:50 8:20/M
6 Derick Smith Commerce MI 132 32 38 27:16 8:48/M
7 Gabriel Martinez Commerce MI 55 36 39 27:23 8:50/M
8 Aaron Prager Ferndale MI 6 36 72 33:04 10:40/M
9 Adam Organ Durham NC 117 39 112 42:39 13:45/M


Female 30 to 39
Total
Place Name City Bib No Age Overall Time Pace
1 Alison Heydorn Walled Lake MI 84 30 15 23:56 7:43/M
2 Krysten Sladewski Northville MI 31 30 21 24:43 7:58/M
3 Melanie Davis Novi MI 80 32 44 28:11 9:05/M
4 Kim Ursing Walled Lake MI 126 33 54 30:13 9:45/M
5 Kimberley Witten Canton MI 42 38 59 31:35 10:11/M
6 Christina Zarfl Commerce MI 119 31 60 31:50 10:16/M
7 Holly Schafer Commerce Township 54 38 63 32:05 10:21/M
8 Darcy Shirey Farmington MI 73 31 64 32:14 10:24/M
9 Jenny Linn Livonia MI 83 30 66 32:26 10:28/M
10 Serenity Brain Walled Lake MI 78 39 76 33:22 10:46/M
11 April Leder Wixom MI 70 35 77 33:23 10:46/M
12 Kaysie Stass Wixom MI 135 34 81 33:54 10:56/M
13 Erin Saotome Howell MI 46 30 83 34:15 11:03/M
14 Nicole Tohstiere Utica MI 128 34 86 34:49 11:14/M
15 Stephanie Leckvarcik Dearborn MI 28 32 90 35:27 11:26/M
16 Loganayaki Ramamurthy Wixom MI 86 36 102 39:08 12:37/M
17 Krista Marie Gilmore Farmington Hills M 23 31 109 42:04 13:34/M
18 Tiffany Storm Walled Lake MI 35 33 122 49:17 15:54/M


Male 40 to 49
Total
Place Name City Bib No Age Overall Time Pace
1 Mark Paulson White Lake MI 125 46 2 18:21 5:55/M
2 Michael Witten Canton MI 7 42 8 21:56 7:05/M
3 Brian Servello Highland MI 114 43 10 22:26 7:14/M
4 Mark Partogian Walled Lake MI 18 49 36 26:32 8:34/M
5 Joseph Frederick Livonia MI 298 41 73 33:05 10:40/M
6 Michael Pween Saint Clair Shores 129 44 87 34:50 11:14/M
7 Larry Bossman Farmington Hills M 4 48 91 35:36 11:29/M
8 Steve Anderson Wolverine Lake MI 5 40 118 44:50 14:28/M
9 John Magee Northville MI 103 46 131 50:59 16:27/M


Female 40 to 49
Total
Place Name City Bib No Age Overall Time Pace
1 Denise Dashner Temperance MI 118 45 20 24:41 7:58/M
2 Wendy Eckman Wolverine Lake MI 59 48 25 25:37 8:16/M
3 Carmi Edwards Walled Lake MI 22 47 31 26:10 8:26/M
4 Colleen Adams Commerce Township 27 40 43 27:41 8:56/M
5 Jenny Narvaez Arlington TX 97 41 46 28:44 9:16/M
6 Shawna Broida Commerce Twp 131 44 48 28:50 9:18/M
7 Kathy Fox Commerce Twp MI 88 42 49 29:09 9:24/M
8 Kathy Edwards Walled Lake MI 66 46 52 29:56 9:39/M
9 Karen Milatz West Bloomfield MI 50 47 56 31:01 10:00/M
10 Stephanie Mills Novi MI 75 49 61 31:51 10:16/M
11 Laura McNair Shelby Twp MI 72 42 67 32:26 10:28/M
12 Shelly Karbowski Commerce MI 90 45 70 33:02 10:39/M
13 Meredith Jacobson Walled Lake MI 34 44 78 33:27 10:47/M
14 Sandy Bailey Commerce Twp MI 13 40 84 34:40 11:11/M
15 Amy Drongowski Commerce Township 53 40 85 34:46 11:13/M
16 Lynn Partogian White Lake MI 8 41 94 36:58 11:55/M
17 Diana Maxwell Commerce Twp. MI 71 46 96 37:14 12:01/M
18 Elizabeth Matijas Auburn NY 29 47 108 41:36 13:25/M
19 Cheryl Kuhel Wolverine Lake MI 9 47 111 42:11 13:36/M
20 Terry Darling Milford MI 21 44 130 50:33 16:18/M
21 Carole Clark Wolverine Lake MI 47 49 135 52:15 16:51/M


Male 50 to 59
Total
Place Name City Bib No Age Overall Time Pace
1 Marvin Guitar Harrison Twp MI 82 58 11 22:40 7:19/M
2 Domingo Valadez Temperance MI 116 55 14 23:53 7:42/M
3 Chris Fowler Commerce Twp MI 121 52 19 24:38 7:57/M
4 Bruce Berndt Farmington Hills M 120 56 27 25:45 8:18/M
5 Dan Williams Novi MI 115 50 32 26:15 8:28/M
6 Jim Zittel Waterford MI 11 52 40 27:25 8:51/M
7 Patrick Gilbert White Lake MI 57 50 45 28:26 9:10/M
8 Richard Franczak Commerce Twp MI 24 57 57 31:10 10:03/M
9 Jim Schafer Commerce Township 102 50 58 31:30 10:10/M
10 Donn Douthitt Plymouth MI 51 58 71 33:02 10:39/M
11 Tom Voelz Wixom MI 14 59 79 33:32 10:49/M
12 Tom Dixon Royal Oak MI 100 57 80 33:52 10:55/M
13 Bennett Lublin Walled Lake MI 137 56 97 37:19 12:02/M
14 David Cryderman Westland MI 109 59 125 50:11 16:11/M
15 Matt Slaughter Milford MI 60 53 128 50:27 16:16/M


Female 50 to 59
Total
Place Name City Bib No Age Overall Time Pace
1 Margie Schuldinger White Lake, Mi MI 2 53 69 33:01 10:39/M
2 Susan Silva Walled Lake MI 91 58 74 33:11 10:42/M
3 Ramona Cloutier-Rudolph Novi MI 26 59 88 34:54 11:15/M
4 Christine Bart Brighton MI 74 51 98 37:28 12:05/M
5 Shawna McManus Canton MI 12 50 100 37:52 12:13/M
6 Anne Stus Novi MI 133 50 105 40:46 13:09/M
7 Lynn Hennessy Trenton MI 38 51 107 41:31 13:24/M
8 Shirley Cannon Milford MI 93 55 115 44:33 14:22/M
9 Lori Powers Walled Lake MI 67 59 119 46:34 15:01/M
10 Cindy Serling Walled Lake MI 113 58 120 46:35 15:02/M
11 Laura Cryderman Westland MI 110 51 126 50:11 16:11/M
12 Susan Kurzyna White Lake MI 15 51 129 50:33 16:18/M
13 Lori Blackwell Commerce Twp MI 105 54 133 51:18 16:33/M


Male 60 and Over
Total
Place Name City Bib No Age Overall Time Pace
1 Maury Dean Commerce Township 299 72 18 24:31 7:55/M
2 Gordon Okada Commerce Twp MI 17 62 37 26:52 8:40/M
3 Leonard Constantine Chesterfield MI 98 62 55 30:29 9:50/M
4 Bruce Featherstone Franklin MI 99 62 65 32:20 10:26/M
5 Daniel Gauthier Novi MI 122 60 68 33:01 10:39/M
6 Steven Lepsetz West Bloomfield MI 362 64 95 37:05 11:58/M
7 Manfred Zarfl Holly MI 44 64 124 49:42 16:02/M
8 Michael Blackwell Commerce Twp MI 104 64 132 51:01 16:27/M


Female 60 and Over
Total
Place Name City Bib No Age Overall Time Pace
1 Mary Youtz Commerce Twp MI 95 63 50 29:26 9:30/M
2 Cheryl Fogel West Bloomfield MI 41 69 101 38:47 12:31/M
3 Peggy Olson Powell OHIO 76 62 104 40:43 13:08/M
4 Sheryl Walsh Novi MI 10 61 106 41:20 13:20/M
5 Marge Schwartz Walled Lake MI 106 69 121 47:32 15:20/M
6 Patricia Zarfl Holly MI 43 62 123 49:40 16:01/M
7 Diane Braykovich Walled Lake MI 39 61 134 52:14 16:51/M